sensor_id;sensor_type;location;lat;lon;timestamp;pressure;altitude;pressure_sealevel;temperature;humidity
16738;BME280;17906;47.684;10.806;2022-11-20T00:00:16;92717.59;;;0.92;94.78
16738;BME280;17906;47.684;10.806;2022-11-20T00:02:44;92718.84;;;0.89;95.12
16738;BME280;17906;47.684;10.806;2022-11-20T00:05:10;92718.03;;;0.96;95.14
16738;BME280;17906;47.684;10.806;2022-11-20T00:07:37;92718.88;;;0.96;94.31
16738;BME280;17906;47.684;10.806;2022-11-20T00:10:04;92709.22;;;1.02;94.07
16738;BME280;17906;47.684;10.806;2022-11-20T00:12:31;92724.00;;;0.98;93.84
16738;BME280;17906;47.684;10.806;2022-11-20T00:14:58;92726.00;;;0.82;94.50
16738;BME280;17906;47.684;10.806;2022-11-20T00:17:24;92724.97;;;0.83;94.31
16738;BME280;17906;47.684;10.806;2022-11-20T00:19:53;92732.97;;;0.77;95.87
16738;BME280;17906;47.684;10.806;2022-11-20T00:22:20;92728.88;;;0.81;95.89
16738;BME280;17906;47.684;10.806;2022-11-20T00:24:47;92735.84;;;0.82;96.38
16738;BME280;17906;47.684;10.806;2022-11-20T00:27:13;92721.28;;;0.84;96.84
16738;BME280;17906;47.684;10.806;2022-11-20T00:29:40;92729.09;;;0.86;97.75
16738;BME280;17906;47.684;10.806;2022-11-20T00:32:06;92735.47;;;0.85;97.86
16738;BME280;17906;47.684;10.806;2022-11-20T00:34:33;92732.81;;;0.92;97.72
16738;BME280;17906;47.684;10.806;2022-11-20T00:37:01;92730.97;;;0.99;97.74
16738;BME280;17906;47.684;10.806;2022-11-20T00:39:27;92734.44;;;1.06;97.25
16738;BME280;17906;47.684;10.806;2022-11-20T00:41:54;92735.69;;;1.16;96.36
16738;BME280;17906;47.684;10.806;2022-11-20T00:44:21;92741.69;;;1.18;96.68
16738;BME280;17906;47.684;10.806;2022-11-20T00:46:47;92740.22;;;1.23;95.92
16738;BME280;17906;47.684;10.806;2022-11-20T00:49:14;92742.91;;;1.23;95.86
16738;BME280;17906;47.684;10.806;2022-11-20T00:51:40;92740.88;;;1.31;96.27
16738;BME280;17906;47.684;10.806;2022-11-20T00:54:08;92741.06;;;1.36;96.62
16738;BME280;17906;47.684;10.806;2022-11-20T00:56:35;92743.31;;;1.46;95.90
16738;BME280;17906;47.684;10.806;2022-11-20T00:59:02;92741.06;;;1.43;94.86
16738;BME280;17906;47.684;10.806;2022-11-20T01:01:29;92748.25;;;1.42;95.47
16738;BME280;17906;47.684;10.806;2022-11-20T01:03:57;92752.38;;;1.45;96.27
16738;BME280;17906;47.684;10.806;2022-11-20T01:06:26;92754.00;;;1.46;96.61
16738;BME280;17906;47.684;10.806;2022-11-20T01:08:54;92745.41;;;1.51;97.16
16738;BME280;17906;47.684;10.806;2022-11-20T01:11:24;92748.66;;;1.46;96.75
16738;BME280;17906;47.684;10.806;2022-11-20T01:13:52;92747.84;;;1.45;97.02
16738;BME280;17906;47.684;10.806;2022-11-20T01:16:22;92758.53;;;1.45;97.75
16738;BME280;17906;47.684;10.806;2022-11-20T01:18:50;92754.63;;;1.41;98.05
16738;BME280;17906;47.684;10.806;2022-11-20T01:21:19;92748.66;;;1.46;98.32
16738;BME280;17906;47.684;10.806;2022-11-20T01:23:47;92759.34;;;1.46;97.81
16738;BME280;17906;47.684;10.806;2022-11-20T01:26:16;92750.31;;;1.54;97.60
16738;BME280;17906;47.684;10.806;2022-11-20T01:28:44;92749.50;;;1.53;97.72
16738;BME280;17906;47.684;10.806;2022-11-20T01:31:12;92760.56;;;1.57;97.31
16738;BME280;17906;47.684;10.806;2022-11-20T01:33:43;92750.94;;;1.56;97.48
16738;BME280;17906;47.684;10.806;2022-11-20T01:36:10;92763.25;;;1.57;97.23
16738;BME280;17906;47.684;10.806;2022-11-20T01:38:38;92760.78;;;1.55;97.34
16738;BME280;17906;47.684;10.806;2022-11-20T01:41:06;92755.84;;;1.45;97.63
16738;BME280;17906;47.684;10.806;2022-11-20T01:43:33;92756.25;;;1.36;98.38
16738;BME280;17906;47.684;10.806;2022-11-20T01:46:14;92762.84;;;1.40;98.20
16738;BME280;17906;47.684;10.806;2022-11-20T01:48:46;92774.53;;;1.32;98.19
16738;BME280;17906;47.684;10.806;2022-11-20T01:51:18;92765.50;;;1.27;98.21
16738;BME280;17906;47.684;10.806;2022-11-20T01:53:47;92766.53;;;1.19;98.24
16738;BME280;17906;47.684;10.806;2022-11-20T01:56:14;92768.38;;;1.18;98.28
16738;BME280;17906;47.684;10.806;2022-11-20T01:58:45;92767.53;;;1.25;97.98
16738;BME280;17906;47.684;10.806;2022-11-20T02:01:15;92769.41;;;1.31;97.89
16738;BME280;17906;47.684;10.806;2022-11-20T02:03:42;92762.38;;;1.16;98.18
16738;BME280;17906;47.684;10.806;2022-11-20T02:06:14;92772.66;;;1.13;98.19
16738;BME280;17906;47.684;10.806;2022-11-20T02:08:43;92765.28;;;1.15;97.71
16738;BME280;17906;47.684;10.806;2022-11-20T02:11:10;92767.94;;;1.15;97.41
16738;BME280;17906;47.684;10.806;2022-11-20T02:13:38;92765.28;;;1.15;96.64
16738;BME280;17906;47.684;10.806;2022-11-20T02:16:19;92770.19;;;1.11;97.37
16738;BME280;17906;47.684;10.806;2022-11-20T02:18:46;92771.03;;;1.18;97.95
16738;BME280;17906;47.684;10.806;2022-11-20T02:21:28;92771.63;;;1.14;97.80
16738;BME280;17906;47.684;10.806;2022-11-20T02:24:13;92769.59;;;1.09;98.01
16738;BME280;17906;47.684;10.806;2022-11-20T02:26:45;92768.56;;;1.10;98.27
16738;BME280;17906;47.684;10.806;2022-11-20T02:29:16;92771.63;;;1.14;98.34
16738;BME280;17906;47.684;10.806;2022-11-20T02:31:43;92762.59;;;1.08;99.05
16738;BME280;17906;47.684;10.806;2022-11-20T02:34:11;92756.63;;;1.00;99.12
16738;BME280;17906;47.684;10.806;2022-11-20T02:36:39;92759.09;;;1.01;99.10
16738;BME280;17906;47.684;10.806;2022-11-20T02:39:09;92767.50;;;1.05;98.78
16738;BME280;17906;47.684;10.806;2022-11-20T02:41:39;92767.72;;;1.03;98.72
16738;BME280;17906;47.684;10.806;2022-11-20T02:44:06;92754.38;;;1.03;97.82
16738;BME280;17906;47.684;10.806;2022-11-20T02:46:33;92752.97;;;1.07;97.55
16738;BME280;17906;47.684;10.806;2022-11-20T02:49:01;92757.88;;;1.10;97.41
16738;BME280;17906;47.684;10.806;2022-11-20T02:51:28;92750.06;;;1.15;97.30
16738;BME280;17906;47.684;10.806;2022-11-20T02:53:55;92754.63;;;1.28;98.23
16738;BME280;17906;47.684;10.806;2022-11-20T02:56:21;92751.31;;;1.26;97.72
16738;BME280;17906;47.684;10.806;2022-11-20T02:58:49;92761.78;;;1.28;97.53
16738;BME280;17906;47.684;10.806;2022-11-20T03:01:16;92741.91;;;1.30;95.50
16738;BME280;17906;47.684;10.806;2022-11-20T03:03:43;92750.69;;;1.24;95.92
16738;BME280;17906;47.684;10.806;2022-11-20T03:06:10;92743.94;;;1.28;96.86
16738;BME280;17906;47.684;10.806;2022-11-20T03:08:36;92748.25;;;1.23;97.05
16738;BME280;17906;47.684;10.806;2022-11-20T03:11:05;92754.00;;;1.19;97.95
16738;BME280;17906;47.684;10.806;2022-11-20T03:13:33;92760.38;;;1.18;98.68
16738;BME280;17906;47.684;10.806;2022-11-20T03:16:06;92756.63;;;1.06;99.47
16738;BME280;17906;47.684;10.806;2022-11-20T03:18:33;92751.31;;;1.13;99.57
16738;BME280;17906;47.684;10.806;2022-11-20T03:21:00;92752.53;;;1.17;99.40
16738;BME280;17906;47.684;10.806;2022-11-20T03:23:29;92758.06;;;0.96;100.00
16738;BME280;17906;47.684;10.806;2022-11-20T03:25:55;92753.13;;;0.86;100.00
16738;BME280;17906;47.684;10.806;2022-11-20T03:28:22;92755.75;;;0.79;100.00
16738;BME280;17906;47.684;10.806;2022-11-20T03:30:48;92754.53;;;0.75;100.00
16738;BME280;17906;47.684;10.806;2022-11-20T03:33:16;92754.16;;;0.85;100.00
16738;BME280;17906;47.684;10.806;2022-11-20T03:35:43;92763.97;;;0.84;100.00
16738;BME280;17906;47.684;10.806;2022-11-20T03:38:10;92768.47;;;0.84;100.00
16738;BME280;17906;47.684;10.806;2022-11-20T03:40:36;92772.41;;;0.88;100.00
16738;BME280;17906;47.684;10.806;2022-11-20T03:43:03;92766.03;;;0.82;100.00
16738;BME280;17906;47.684;10.806;2022-11-20T03:45:30;92772.56;;;0.73;100.00
16738;BME280;17906;47.684;10.806;2022-11-20T03:47:56;92772.56;;;0.67;100.00
16738;BME280;17906;47.684;10.806;2022-11-20T03:50:24;92773.16;;;0.69;100.00
16738;BME280;17906;47.684;10.806;2022-11-20T03:52:51;92770.09;;;0.65;100.00
16738;BME280;17906;47.684;10.806;2022-11-20T03:55:18;92770.72;;;0.67;100.00
16738;BME280;17906;47.684;10.806;2022-11-20T03:57:44;92774.59;;;0.65;100.00
16738;BME280;17906;47.684;10.806;2022-11-20T04:00:12;92770.06;;;0.58;100.00
16738;BME280;17906;47.684;10.806;2022-11-20T04:02:39;92772.09;;;0.56;100.00
16738;BME280;17906;47.684;10.806;2022-11-20T04:05:06;92772.31;;;0.55;100.00
16738;BME280;17906;47.684;10.806;2022-11-20T04:07:35;92770.47;;;0.55;100.00
16738;BME280;17906;47.684;10.806;2022-11-20T04:10:02;92769.44;;;0.56;100.00
16738;BME280;17906;47.684;10.806;2022-11-20T04:12:31;92769.28;;;0.65;100.00
16738;BME280;17906;47.684;10.806;2022-11-20T04:14:58;92762.28;;;0.64;100.00
16738;BME280;17906;47.684;10.806;2022-11-20T04:17:25;92761.06;;;0.73;100.00
16738;BME280;17906;47.684;10.806;2022-11-20T04:19:51;92768.84;;;0.68;100.00
16738;BME280;17906;47.684;10.806;2022-11-20T04:22:18;92766.59;;;0.71;100.00
16738;BME280;17906;47.684;10.806;2022-11-20T04:24:47;92758.22;;;0.74;100.00
16738;BME280;17906;47.684;10.806;2022-11-20T04:27:13;92763.13;;;0.71;100.00
16738;BME280;17906;47.684;10.806;2022-11-20T04:29:40;92769.28;;;0.65;100.00
16738;BME280;17906;47.684;10.806;2022-11-20T04:32:07;92767.63;;;0.64;100.00
16738;BME280;17906;47.684;10.806;2022-11-20T04:34:34;92777.28;;;0.65;100.00
16738;BME280;17906;47.684;10.806;2022-11-20T04:37:00;92776.44;;;0.64;100.00
16738;BME280;17906;47.684;10.806;2022-11-20T04:39:27;92792.63;;;0.63;100.00
16738;BME280;17906;47.684;10.806;2022-11-20T04:41:55;92770.47;;;0.55;100.00
16738;BME280;17906;47.684;10.806;2022-11-20T04:44:36;92762.22;;;0.50;100.00
16738;BME280;17906;47.684;10.806;2022-11-20T04:47:03;92776.31;;;0.38;100.00
16738;BME280;17906;47.684;10.806;2022-11-20T04:49:29;92768.75;;;0.41;100.00
16738;BME280;17906;47.684;10.806;2022-11-20T04:51:56;92773.66;;;0.38;100.00
16738;BME280;17906;47.684;10.806;2022-11-20T04:54:23;92776.72;;;0.35;100.00
16738;BME280;17906;47.684;10.806;2022-11-20T04:56:50;92779.41;;;0.35;100.00
16738;BME280;17906;47.684;10.806;2022-11-20T04:59:19;92778.97;;;0.31;100.00
16738;BME280;17906;47.684;10.806;2022-11-20T05:01:45;92780.63;;;0.32;100.00
16738;BME280;17906;47.684;10.806;2022-11-20T05:04:12;92778.16;;;0.30;100.00
16738;BME280;17906;47.684;10.806;2022-11-20T05:06:38;92781.00;;;0.29;100.00
16738;BME280;17906;47.684;10.806;2022-11-20T05:09:05;92772.84;;;0.37;100.00
16738;BME280;17906;47.684;10.806;2022-11-20T05:11:32;92779.41;;;0.41;100.00
16738;BME280;17906;47.684;10.806;2022-11-20T05:13:59;92787.59;;;0.33;100.00
16738;BME280;17906;47.684;10.806;2022-11-20T05:16:27;92791.47;;;0.30;100.00
16738;BME280;17906;47.684;10.806;2022-11-20T05:18:54;92782.88;;;0.35;100.00
16738;BME280;17906;47.684;10.806;2022-11-20T05:21:21;92781.59;;;0.24;100.00
16738;BME280;17906;47.684;10.806;2022-11-20T05:23:48;92788.78;;;0.24;100.00
16738;BME280;17906;47.684;10.806;2022-11-20T05:26:17;92790.00;;;0.21;100.00
16738;BME280;17906;47.684;10.806;2022-11-20T05:28:44;92790.78;;;0.15;100.00
16738;BME280;17906;47.684;10.806;2022-11-20T05:31:12;92794.31;;;0.22;100.00
16738;BME280;17906;47.684;10.806;2022-11-20T05:33:41;92792.41;;;0.10;100.00
16738;BME280;17906;47.684;10.806;2022-11-20T05:36:09;92793.22;;;0.17;100.00
16738;BME280;17906;47.684;10.806;2022-11-20T05:38:35;92789.53;;;0.18;100.00
16738;BME280;17906;47.684;10.806;2022-11-20T05:41:03;92799.44;;;0.24;100.00
16738;BME280;17906;47.684;10.806;2022-11-20T05:43:32;92794.53;;;0.27;100.00
16738;BME280;17906;47.684;10.806;2022-11-20T05:45:59;92789.81;;;0.29;100.00
16738;BME280;17906;47.684;10.806;2022-11-20T05:48:26;92788.56;;;0.25;100.00
16738;BME280;17906;47.684;10.806;2022-11-20T05:50:54;92793.09;;;0.25;100.00
16738;BME280;17906;47.684;10.806;2022-11-20T05:53:20;92808.47;;;0.29;100.00
16738;BME280;17906;47.684;10.806;2022-11-20T05:55:56;92804.16;;;0.28;100.00
16738;BME280;17906;47.684;10.806;2022-11-20T05:58:22;92814.81;;;0.28;100.00
16738;BME280;17906;47.684;10.806;2022-11-20T06:00:49;92815.28;;;0.39;100.00
16738;BME280;17906;47.684;10.806;2022-11-20T06:03:16;92818.16;;;0.37;100.00
16738;BME280;17906;47.684;10.806;2022-11-20T06:05:42;92809.59;;;0.48;100.00
16738;BME280;17906;47.684;10.806;2022-11-20T06:08:10;92811.81;;;0.38;100.00
16738;BME280;17906;47.684;10.806;2022-11-20T06:10:37;92805.63;;;0.31;100.00
16738;BME280;17906;47.684;10.806;2022-11-20T06:13:04;92801.50;;;0.28;100.00
16738;BME280;17906;47.684;10.806;2022-11-20T06:15:30;92813.03;;;0.36;100.00
16738;BME280;17906;47.684;10.806;2022-11-20T06:17:57;92806.63;;;0.30;100.00
16738;BME280;17906;47.684;10.806;2022-11-20T06:20:24;92810.97;;;0.38;100.00
16738;BME280;17906;47.684;10.806;2022-11-20T06:22:51;92803.97;;;0.30;100.00
16738;BME280;17906;47.684;10.806;2022-11-20T06:25:19;92803.59;;;0.33;100.00
16738;BME280;17906;47.684;10.806;2022-11-20T06:27:45;92811.59;;;0.33;100.00
16738;BME280;17906;47.684;10.806;2022-11-20T06:30:13;92810.78;;;0.39;100.00
16738;BME280;17906;47.684;10.806;2022-11-20T06:32:39;92804.63;;;0.39;100.00
16738;BME280;17906;47.684;10.806;2022-11-20T06:35:07;92815.75;;;0.42;100.00
16738;BME280;17906;47.684;10.806;2022-11-20T06:37:34;92823.75;;;0.49;100.00
16738;BME280;17906;47.684;10.806;2022-11-20T06:40:01;92819.66;;;0.46;100.00
16738;BME280;17906;47.684;10.806;2022-11-20T06:42:28;92820.31;;;0.55;100.00
16738;BME280;17906;47.684;10.806;2022-11-20T06:44:55;92814.16;;;0.61;100.00
16738;BME280;17906;47.684;10.806;2022-11-20T06:47:22;92815.63;;;0.64;100.00
16738;BME280;17906;47.684;10.806;2022-11-20T06:49:49;92829.41;;;0.74;100.00
16738;BME280;17906;47.684;10.806;2022-11-20T06:52:15;92820.78;;;0.72;100.00
16738;BME280;17906;47.684;10.806;2022-11-20T06:54:42;92828.16;;;0.70;100.00
16738;BME280;17906;47.684;10.806;2022-11-20T06:57:09;92831.44;;;0.72;100.00
16738;BME280;17906;47.684;10.806;2022-11-20T06:59:37;92829.41;;;0.74;100.00
16738;BME280;17906;47.684;10.806;2022-11-20T07:02:03;92840.09;;;0.80;100.00
16738;BME280;17906;47.684;10.806;2022-11-20T07:04:31;92838.66;;;0.84;98.80
16738;BME280;17906;47.684;10.806;2022-11-20T07:06:57;92832.97;;;0.87;97.56
16738;BME280;17906;47.684;10.806;2022-11-20T07:09:24;92837.06;;;0.90;98.07
16738;BME280;17906;47.684;10.806;2022-11-20T07:11:51;92836.88;;;0.92;97.02
16738;BME280;17906;47.684;10.806;2022-11-20T07:14:17;92833.59;;;0.96;97.02
16738;BME280;17906;47.684;10.806;2022-11-20T07:16:45;92837.06;;;0.90;96.87
16738;BME280;17906;47.684;10.806;2022-11-20T07:19:12;92839.31;;;0.86;96.69
16738;BME280;17906;47.684;10.806;2022-11-20T07:21:39;92840.78;;;0.96;95.91
16738;BME280;17906;47.684;10.806;2022-11-20T07:24:06;92838.72;;;0.91;95.83
16738;BME280;17906;47.684;10.806;2022-11-20T07:26:32;92844.44;;;0.88;96.13
16738;BME280;17906;47.684;10.806;2022-11-20T07:28:59;92842.97;;;0.79;95.80
16738;BME280;17906;47.684;10.806;2022-11-20T07:31:26;92848.88;;;0.68;97.00
16738;BME280;17906;47.684;10.806;2022-11-20T07:33:54;92856.81;;;0.54;98.67
16738;BME280;17906;47.684;10.806;2022-11-20T07:36:20;92858.63;;;0.47;99.26
16738;BME280;17906;47.684;10.806;2022-11-20T07:38:47;92861.69;;;0.51;99.44
16738;BME280;17906;47.684;10.806;2022-11-20T07:41:14;92853.38;;;0.67;97.23
16738;BME280;17906;47.684;10.806;2022-11-20T07:43:41;92859.53;;;0.68;96.34
16738;BME280;17906;47.684;10.806;2022-11-20T07:46:07;92853.81;;;0.71;97.22
16738;BME280;17906;47.684;10.806;2022-11-20T07:48:34;92856.06;;;0.74;96.04
16738;BME280;17906;47.684;10.806;2022-11-20T07:51:02;92855.06;;;0.75;95.14
16738;BME280;17906;47.684;10.806;2022-11-20T07:53:29;92855.06;;;0.75;94.74
16738;BME280;17906;47.684;10.806;2022-11-20T07:55:59;92855.94;;;0.88;93.13
16738;BME280;17906;47.684;10.806;2022-11-20T07:58:25;92860.88;;;0.85;94.16
16738;BME280;17906;47.684;10.806;2022-11-20T08:00:52;92856.97;;;0.94;92.32
16738;BME280;17906;47.684;10.806;2022-11-20T08:03:19;92863.78;;;1.03;90.54
16738;BME280;17906;47.684;10.806;2022-11-20T08:05:45;92853.97;;;1.10;90.62
16738;BME280;17906;47.684;10.806;2022-11-20T08:08:14;92859.31;;;1.10;91.00
16738;BME280;17906;47.684;10.806;2022-11-20T08:10:40;92863.63;;;1.11;89.84
16738;BME280;17906;47.684;10.806;2022-11-20T08:13:08;92858.69;;;1.15;92.56
16738;BME280;17906;47.684;10.806;2022-11-20T08:16:07;92863.06;;;1.29;90.21
16738;BME280;17906;47.684;10.806;2022-11-20T08:18:34;92864.09;;;1.35;88.61
16738;BME280;17906;47.684;10.806;2022-11-20T08:21:02;92859.63;;;1.68;88.15
16738;BME280;17906;47.684;10.806;2022-11-20T08:23:31;92860.44;;;2.42;83.70
16738;BME280;17906;47.684;10.806;2022-11-20T08:25:57;92850.31;;;2.57;83.87
16738;BME280;17906;47.684;10.806;2022-11-20T08:28:24;92852.44;;;3.00;80.91
16738;BME280;17906;47.684;10.806;2022-11-20T08:30:51;92849.97;;;3.05;80.97
16738;BME280;17906;47.684;10.806;2022-11-20T08:33:17;92850.88;;;2.79;79.26
16738;BME280;17906;47.684;10.806;2022-11-20T08:35:44;92846.59;;;2.58;79.95
16738;BME280;17906;47.684;10.806;2022-11-20T08:38:11;92846.66;;;2.38;83.72
16738;BME280;17906;47.684;10.806;2022-11-20T08:40:39;92852.84;;;2.25;79.51
16738;BME280;17906;47.684;10.806;2022-11-20T08:43:06;92854.91;;;2.30;83.15
16738;BME280;17906;47.684;10.806;2022-11-20T08:45:37;92852.00;;;2.45;82.16
16738;BME280;17906;47.684;10.806;2022-11-20T08:48:04;92855.72;;;2.37;80.89
16738;BME280;17906;47.684;10.806;2022-11-20T08:50:31;92861.91;;;2.38;82.68
16738;BME280;17906;47.684;10.806;2022-11-20T08:53:03;92858.16;;;2.52;80.90
16738;BME280;17906;47.684;10.806;2022-11-20T08:55:30;92860.63;;;2.53;80.87
16738;BME280;17906;47.684;10.806;2022-11-20T08:57:58;92863.72;;;2.50;80.08
16738;BME280;17906;47.684;10.806;2022-11-20T09:00:29;92860.63;;;2.53;83.11
16738;BME280;17906;47.684;10.806;2022-11-20T09:02:55;92856.72;;;2.49;81.66
16738;BME280;17906;47.684;10.806;2022-11-20T09:05:23;92857.56;;;2.43;83.07
16738;BME280;17906;47.684;10.806;2022-11-20T09:07:50;92843.53;;;2.54;80.60
16738;BME280;17906;47.684;10.806;2022-11-20T09:10:17;92851.50;;;2.74;79.81
16738;BME280;17906;47.684;10.806;2022-11-20T09:12:44;92849.41;;;2.89;78.28
16738;BME280;17906;47.684;10.806;2022-11-20T09:15:12;92852.88;;;2.90;79.19
16738;BME280;17906;47.684;10.806;2022-11-20T09:17:39;92837.91;;;3.65;78.28
16738;BME280;17906;47.684;10.806;2022-11-20T09:20:06;92822.63;;;4.84;71.82
16738;BME280;17906;47.684;10.806;2022-11-20T09:22:33;92834.56;;;5.06;69.50
16738;BME280;17906;47.684;10.806;2022-11-20T09:24:59;92830.81;;;5.07;71.40
16738;BME280;17906;47.684;10.806;2022-11-20T09:27:26;92825.66;;;5.42;68.29
16738;BME280;17906;47.684;10.806;2022-11-20T09:29:53;92820.50;;;5.41;67.46
16738;BME280;17906;47.684;10.806;2022-11-20T09:32:21;92816.91;;;5.89;66.87
16738;BME280;17906;47.684;10.806;2022-11-20T09:34:48;92813.56;;;6.05;63.22
16738;BME280;17906;47.684;10.806;2022-11-20T09:37:15;92817.72;;;5.47;64.23
16738;BME280;17906;47.684;10.806;2022-11-20T09:39:41;92819.03;;;5.57;65.06
16738;BME280;17906;47.684;10.806;2022-11-20T09:42:25;92806.13;;;5.77;64.99
16738;BME280;17906;47.684;10.806;2022-11-20T09:45:14;92801.69;;;6.36;62.91
16738;BME280;17906;47.684;10.806;2022-11-20T09:47:55;92811.63;;;6.35;60.42
16738;BME280;17906;47.684;10.806;2022-11-20T09:50:30;92806.38;;;6.52;61.29
16738;BME280;17906;47.684;10.806;2022-11-20T09:53:16;92803.03;;;7.09;61.10
16738;BME280;17906;47.684;10.806;2022-11-20T09:55:46;92789.69;;;7.71;57.26
16738;BME280;17906;47.684;10.806;2022-11-20T09:58:20;92785.59;;;7.97;58.47
16738;BME280;17906;47.684;10.806;2022-11-20T10:00:51;92785.59;;;7.97;55.27
16738;BME280;17906;47.684;10.806;2022-11-20T10:03:35;92778.16;;;8.21;54.38
16738;BME280;17906;47.684;10.806;2022-11-20T10:06:07;92779.72;;;8.17;55.64
16738;BME280;17906;47.684;10.806;2022-11-20T10:08:41;92771.88;;;8.15;54.73
16738;BME280;17906;47.684;10.806;2022-11-20T10:11:14;92770.16;;;8.26;50.43
16738;BME280;17906;47.684;10.806;2022-11-20T10:13:52;92786.53;;;8.36;52.66
16738;BME280;17906;47.684;10.806;2022-11-20T10:16:28;92772.75;;;8.04;53.82
16738;BME280;17906;47.684;10.806;2022-11-20T10:19:08;92779.50;;;8.35;52.82
16738;BME280;17906;47.684;10.806;2022-11-20T10:21:52;92784.97;;;8.57;52.65
16738;BME280;17906;47.684;10.806;2022-11-20T10:24:34;92773.25;;;8.51;52.89
16738;BME280;17906;47.684;10.806;2022-11-20T10:27:18;92780.38;;;8.07;55.64
16738;BME280;17906;47.684;10.806;2022-11-20T10:29:52;92777.72;;;8.62;52.67
16738;BME280;17906;47.684;10.806;2022-11-20T10:32:31;92784.06;;;8.34;50.34
16738;BME280;17906;47.684;10.806;2022-11-20T10:35:05;92774.09;;;8.01;54.24
16738;BME280;17906;47.684;10.806;2022-11-20T10:37:41;92791.56;;;7.70;55.18
16738;BME280;17906;47.684;10.806;2022-11-20T10:40:20;92793.53;;;7.75;54.52
16738;BME280;17906;47.684;10.806;2022-11-20T10:42:50;92802.59;;;7.40;55.72
16738;BME280;17906;47.684;10.806;2022-11-20T10:45:36;92803.34;;;6.60;57.56
16738;BME280;17906;47.684;10.806;2022-11-20T10:48:14;92804.31;;;6.01;58.60
16738;BME280;17906;47.684;10.806;2022-11-20T10:50:56;92818.50;;;5.66;59.30
16738;BME280;17906;47.684;10.806;2022-11-20T10:53:38;92801.19;;;6.16;56.98
16738;BME280;17906;47.684;10.806;2022-11-20T10:56:14;92799.47;;;6.45;56.12
16738;BME280;17906;47.684;10.806;2022-11-20T10:58:54;92800.13;;;6.87;57.64
16738;BME280;17906;47.684;10.806;2022-11-20T11:01:23;92799.28;;;7.10;55.58
16738;BME280;17906;47.684;10.806;2022-11-20T11:03:52;92789.41;;;7.27;54.59
16738;BME280;17906;47.684;10.806;2022-11-20T11:06:25;92795.63;;;7.16;55.31
16738;BME280;17906;47.684;10.806;2022-11-20T11:08:56;92777.31;;;7.29;53.41
16738;BME280;17906;47.684;10.806;2022-11-20T11:11:27;92780.16;;;7.11;52.93
16738;BME280;17906;47.684;10.806;2022-11-20T11:14:04;92779.91;;;6.61;55.47
16738;BME280;17906;47.684;10.806;2022-11-20T11:16:31;92774.53;;;6.49;57.47
16738;BME280;17906;47.684;10.806;2022-11-20T11:19:04;92766.88;;;6.81;54.37
16738;BME280;17906;47.684;10.806;2022-11-20T11:21:32;92772.31;;;6.46;57.23
16738;BME280;17906;47.684;10.806;2022-11-20T11:24:01;92772.78;;;6.43;56.48
16738;BME280;17906;47.684;10.806;2022-11-20T11:26:27;92767.81;;;6.87;54.01
16738;BME280;17906;47.684;10.806;2022-11-20T11:28:55;92769.22;;;6.89;54.05
16738;BME280;17906;47.684;10.806;2022-11-20T11:31:24;92771.00;;;6.84;52.58
16738;BME280;17906;47.684;10.806;2022-11-20T11:33:50;92772.13;;;6.99;52.97
16738;BME280;17906;47.684;10.806;2022-11-20T11:36:20;92779.44;;;6.76;55.29
16738;BME280;17906;47.684;10.806;2022-11-20T11:38:52;92765.63;;;6.49;54.40
16738;BME280;17906;47.684;10.806;2022-11-20T11:41:22;92760.63;;;6.29;57.17
16738;BME280;17906;47.684;10.806;2022-11-20T11:43:53;92752.66;;;6.10;57.66
16738;BME280;17906;47.684;10.806;2022-11-20T11:46:39;92752.44;;;5.70;56.53
16738;BME280;17906;47.684;10.806;2022-11-20T11:49:16;92752.09;;;5.37;58.93
16738;BME280;17906;47.684;10.806;2022-11-20T11:51:54;92752.09;;;5.37;58.97
16738;BME280;17906;47.684;10.806;2022-11-20T11:54:28;92757.38;;;5.73;58.23
16738;BME280;17906;47.684;10.806;2022-11-20T11:57:00;92741.34;;;5.78;56.72
16738;BME280;17906;47.684;10.806;2022-11-20T12:02:27;92737.53;;;5.44;59.51
16738;BME280;17906;47.684;10.806;2022-11-20T12:04:59;92737.56;;;5.56;60.87
16738;BME280;17906;47.684;10.806;2022-11-20T12:07:38;92753.63;;;5.74;60.79
16738;BME280;17906;47.684;10.806;2022-11-20T12:10:14;92737.13;;;5.71;59.46
16738;BME280;17906;47.684;10.806;2022-11-20T12:12:44;92744.50;;;5.75;60.53
16738;BME280;17906;47.684;10.806;2022-11-20T12:15:22;92726.22;;;6.07;56.16
16738;BME280;17906;47.684;10.806;2022-11-20T12:17:51;92733.06;;;6.03;59.24
16738;BME280;17906;47.684;10.806;2022-11-20T12:20:19;92728.97;;;5.89;59.89
16738;BME280;17906;47.684;10.806;2022-11-20T12:22:54;92728.69;;;5.67;60.64
16738;BME280;17906;47.684;10.806;2022-11-20T12:25:28;92720.84;;;5.54;61.86
16738;BME280;17906;47.684;10.806;2022-11-20T12:28:12;92717.91;;;5.44;61.54
16738;BME280;17906;47.684;10.806;2022-11-20T12:30:51;92716.44;;;5.30;62.64
16738;BME280;17906;47.684;10.806;2022-11-20T12:33:32;92715.94;;;5.09;63.15
16738;BME280;17906;47.684;10.806;2022-11-20T12:36:09;92716.25;;;5.01;63.90
16738;BME280;17906;47.684;10.806;2022-11-20T12:41:49;92714.09;;;4.91;61.30
16738;BME280;17906;47.684;10.806;2022-11-20T12:44:52;92718.66;;;4.91;63.27
16738;BME280;17906;47.684;10.806;2022-11-20T12:47:47;92714.63;;;4.82;61.44
16738;BME280;17906;47.684;10.806;2022-11-20T12:50:22;92721.50;;;4.78;63.18
16738;BME280;17906;47.684;10.806;2022-11-20T12:52:53;92717.19;;;4.77;62.38
16738;BME280;17906;47.684;10.806;2022-11-20T12:55:28;92703.38;;;4.73;63.38
16738;BME280;17906;47.684;10.806;2022-11-20T12:58:04;92710.25;;;4.69;63.43
16738;BME280;17906;47.684;10.806;2022-11-20T13:00:37;92725.03;;;4.60;64.73
16738;BME280;17906;47.684;10.806;2022-11-20T13:03:41;92710.25;;;4.69;64.90
16738;BME280;17906;47.684;10.806;2022-11-20T13:06:13;92704.94;;;4.62;65.49
16738;BME280;17906;47.684;10.806;2022-11-20T13:08:43;92703.84;;;4.70;65.11
16738;BME280;17906;47.684;10.806;2022-11-20T13:11:15;92698.47;;;4.70;65.49
16738;BME280;17906;47.684;10.806;2022-11-20T13:14:04;92702.44;;;4.67;64.80
16738;BME280;17906;47.684;10.806;2022-11-20T13:16:39;92697.34;;;4.59;65.66